createdAt,value
2022-11-21T00:01:22.425Z,100313.56
2022-11-21T00:03:51.123Z,100312.81
2022-11-21T00:06:19.260Z,100316.34
2022-11-21T00:08:47.617Z,100317.22
2022-11-21T00:11:15.905Z,100310.03
2022-11-21T00:13:43.881Z,100313.56
2022-11-21T00:16:13.646Z,100327.78
2022-11-21T00:18:44.125Z,100321.59
2022-11-21T00:21:15.422Z,100309.69
2022-11-21T00:23:43.583Z,100330.63
2022-11-21T00:26:13.100Z,100333.16
2022-11-21T00:28:41.626Z,100332.34
2022-11-21T00:31:09.611Z,100326.13
2022-11-21T00:33:39.183Z,100325.13
2022-11-21T00:36:09.694Z,100335.13
2022-11-21T00:38:38.205Z,100329.66
2022-11-21T00:41:06.679Z,100336.00
2022-11-21T00:43:34.857Z,100338.41
2022-11-21T00:46:03.381Z,100336.25
2022-11-21T00:48:32.772Z,100342.91
2022-11-21T00:51:01.569Z,100339.19
2022-11-21T00:53:31.311Z,100347.31
2022-11-21T00:55:59.828Z,100353.53
2022-11-21T00:58:28.066Z,100349.00
2022-11-21T01:01:04.583Z,100356.94
2022-11-21T01:03:34.431Z,100356.22
2022-11-21T01:06:04.050Z,100359.72
2022-11-21T01:08:33.539Z,100354.38
2022-11-21T01:11:05.056Z,100358.75
2022-11-21T01:13:33.255Z,100356.06
2022-11-21T01:16:05.537Z,100354.25
2022-11-21T01:18:33.650Z,100346.19
2022-11-21T01:21:02.067Z,100353.25
2022-11-21T01:23:30.357Z,100343.88
2022-11-21T01:26:03.964Z,100347.06
2022-11-21T01:28:32.426Z,100373.03
2022-11-21T01:31:05.872Z,100369.03
2022-11-21T01:33:34.500Z,100370.63
2022-11-21T01:36:10.079Z,100362.13
2022-11-21T01:38:38.269Z,100355.38
2022-11-21T01:41:07.983Z,100370.81
2022-11-21T01:43:36.292Z,100379.13
2022-11-21T01:46:11.407Z,100384.88
2022-11-21T01:48:43.716Z,100388.75
2022-11-21T01:51:14.830Z,100378.44
2022-11-21T01:53:45.396Z,100389.41
2022-11-21T01:56:15.976Z,100384.28
2022-11-21T01:58:46.828Z,100394.44
2022-11-21T02:01:15.025Z,100393.97
2022-11-21T02:03:44.733Z,100401.28
2022-11-21T02:06:14.167Z,100382.50
2022-11-21T02:08:45.312Z,100409.66
2022-11-21T02:11:21.569Z,100399.19
2022-11-21T02:13:49.592Z,100396.88
2022-11-21T02:16:17.454Z,100404.19
2022-11-21T02:18:45.467Z,100406.16
2022-11-21T02:21:20.503Z,100401.75
2022-11-21T02:24:00.073Z,100413.56
2022-11-21T02:26:29.891Z,100380.84
2022-11-21T02:28:58.459Z,100353.22
2022-11-21T02:31:26.370Z,100413.31
2022-11-21T02:33:54.253Z,100421.59
2022-11-21T02:36:44.298Z,100416.25
2022-11-21T02:39:18.303Z,100413.94
2022-11-21T02:41:55.623Z,100410.53
2022-11-21T02:44:27.751Z,100418.69
2022-11-21T02:46:56.002Z,100420.78
2022-11-21T02:49:33.238Z,100417.25
2022-11-21T02:52:01.132Z,100427.22
2022-11-21T02:54:29.324Z,100424.66
2022-11-21T02:56:58.796Z,100434.53
2022-11-21T02:59:26.695Z,100431.25
2022-11-21T03:01:54.603Z,100426.97
2022-11-21T03:04:22.511Z,100429.66
2022-11-21T03:06:50.455Z,100432.44
2022-11-21T03:09:18.329Z,100434.28
2022-11-21T03:11:46.194Z,100437.94
2022-11-21T03:14:15.432Z,100439.03
2022-11-21T03:16:43.306Z,100438.06
2022-11-21T03:19:11.185Z,100444.38
2022-11-21T03:21:39.047Z,100434.13
2022-11-21T03:24:08.340Z,100444.63
2022-11-21T03:26:36.206Z,100447.53
2022-11-21T03:29:04.115Z,100446.66
2022-11-21T03:31:33.368Z,100452.16
2022-11-21T03:34:01.251Z,100453.97
2022-11-21T03:36:29.187Z,100452.38
2022-11-21T03:38:57.790Z,100451.66
2022-11-21T03:41:31.795Z,100450.81
2022-11-21T03:44:01.098Z,100450.09
2022-11-21T03:46:29.391Z,100450.09
2022-11-21T03:48:58.996Z,100462.59
2022-11-21T03:51:27.311Z,100460.91
2022-11-21T03:53:55.713Z,100463.69
2022-11-21T03:56:23.732Z,100464.56
2022-11-21T03:58:51.838Z,100465.50
2022-11-21T04:01:20.343Z,100464.78
2022-11-21T04:03:48.715Z,100470.28
2022-11-21T04:06:19.950Z,100473.78
2022-11-21T04:08:48.509Z,100478.41
2022-11-21T04:11:16.841Z,100478.53
2022-11-21T04:13:44.811Z,100484.97
2022-11-21T04:16:12.763Z,100475.94
2022-11-21T04:18:40.679Z,100476.09
2022-11-21T04:21:09.699Z,100477.91
2022-11-21T04:23:39.007Z,100474.38
2022-11-21T04:26:07.011Z,100477.91
2022-11-21T04:28:34.943Z,100465.72
2022-11-21T04:31:10.292Z,100478.13
2022-11-21T04:33:38.857Z,100469.34
2022-11-21T04:36:07.148Z,100475.69
2022-11-21T04:38:35.261Z,100478.47
2022-11-21T04:41:04.920Z,100478.47
2022-11-21T04:43:32.966Z,100489.28
2022-11-21T04:46:00.835Z,100491.97
2022-11-21T04:48:28.906Z,100469.22
2022-11-21T04:50:56.825Z,100482.34
2022-11-21T04:53:24.776Z,100472.59
2022-11-21T04:55:52.649Z,100478.81
2022-11-21T04:58:21.965Z,100470.78
2022-11-21T05:00:49.854Z,100472.59
2022-11-21T05:03:18.002Z,100473.69
2022-11-21T05:05:45.978Z,100471.75
2022-11-21T05:08:13.972Z,100475.50
2022-11-21T05:10:55.718Z,100467.50
2022-11-21T05:13:25.663Z,100482.69
2022-11-21T05:15:57.987Z,100486.34
2022-11-21T05:18:26.119Z,100481.22
2022-11-21T05:20:53.980Z,100484.84
2022-11-21T05:23:21.900Z,100486.78
2022-11-21T05:25:49.908Z,100493.38
2022-11-21T05:28:17.901Z,100487.88
2022-11-21T05:30:47.179Z,100491.53
2022-11-21T05:33:15.204Z,100482.75
2022-11-21T05:35:43.745Z,100477.41
2022-11-21T05:38:12.130Z,100478.41
2022-11-21T05:40:40.247Z,100482.88
2022-11-21T05:43:26.067Z,100484.72
2022-11-21T05:45:55.301Z,100488.34
2022-11-21T05:48:23.219Z,100476.91
2022-11-21T05:50:51.490Z,100481.41
2022-11-21T05:53:19.577Z,100483.34
2022-11-21T05:55:47.628Z,100483.69
2022-11-21T05:58:15.885Z,100497.56
2022-11-21T06:00:43.775Z,100499.53
2022-11-21T06:03:27.528Z,100502.78
2022-11-21T06:06:01.495Z,100500.38
2022-11-21T06:08:30.612Z,100500.47
2022-11-21T06:10:58.502Z,100497.81
2022-11-21T06:13:26.446Z,100496.09
2022-11-21T06:15:57.118Z,100492.44
2022-11-21T06:18:26.515Z,100489.50
2022-11-21T06:20:54.631Z,100502.28
2022-11-21T06:23:22.575Z,100503.16
2022-11-21T06:25:58.179Z,100510.31
2022-11-21T06:28:26.727Z,100521.13
2022-11-21T06:30:54.746Z,100514.06
2022-11-21T06:33:22.868Z,100515.88
2022-11-21T06:35:52.155Z,100504.06
2022-11-21T06:38:20.227Z,100519.63
2022-11-21T06:40:48.190Z,100503.84
2022-11-21T06:43:16.245Z,100514.56
2022-11-21T06:45:44.121Z,100516.88
2022-11-21T06:48:12.056Z,100508.34
2022-11-21T06:50:39.986Z,100516.97
2022-11-21T06:53:09.299Z,100521.34
2022-11-21T06:55:37.304Z,100516.97
2022-11-21T06:58:05.182Z,100514.28
2022-11-21T07:00:33.109Z,100515.28
2022-11-21T07:03:03.454Z,100524.16
2022-11-21T07:05:32.313Z,100501.97
2022-11-21T07:08:00.667Z,100525.13
2022-11-21T07:10:31.550Z,100518.06
2022-11-21T07:13:17.307Z,100518.19
2022-11-21T07:15:46.685Z,100526.41
2022-11-21T07:18:15.124Z,100525.56
2022-11-21T07:20:43.114Z,100524.69
2022-11-21T07:23:11.204Z,100530.69
2022-11-21T07:25:40.766Z,100536.03
2022-11-21T07:28:09.926Z,100533.38
2022-11-21T07:30:38.299Z,100531.78
2022-11-21T07:33:07.594Z,100535.31
2022-11-21T07:35:35.623Z,100536.25
2022-11-21T07:38:04.414Z,100538.94
2022-11-21T07:40:34.703Z,100531.81
2022-11-21T07:43:10.513Z,100553.16
2022-11-21T07:45:39.227Z,100550.69
2022-11-21T07:48:08.417Z,100554.38
2022-11-21T07:50:36.454Z,100556.06
2022-11-21T07:53:06.285Z,100557.88
2022-11-21T07:55:40.231Z,100563.22
2022-11-21T07:58:11.508Z,100540.22
2022-11-21T08:00:42.881Z,100544.50
2022-11-21T08:03:12.629Z,100540.66
2022-11-21T08:05:42.333Z,100549.06
2022-11-21T08:08:11.233Z,100559.53
2022-11-21T08:10:40.282Z,100552.16
2022-11-21T08:13:08.210Z,100557.28
2022-11-21T08:15:38.069Z,100557.78
2022-11-21T08:18:10.385Z,100561.94
2022-11-21T08:20:38.678Z,100555.41
2022-11-21T08:23:07.620Z,100535.53
2022-11-21T08:25:35.971Z,100553.09
2022-11-21T08:28:04.146Z,100567.13
2022-11-21T08:30:32.636Z,100540.31
2022-11-21T08:33:02.639Z,100544.22
2022-11-21T08:35:31.728Z,100562.03
2022-11-21T08:38:00.830Z,100563.66
2022-11-21T08:40:30.288Z,100566.94
2022-11-21T08:42:58.910Z,100564.16
2022-11-21T08:45:27.324Z,100556.50
2022-11-21T08:47:55.759Z,100562.09
2022-11-21T08:50:25.610Z,100568.22
2022-11-21T08:52:53.566Z,100564.66
2022-11-21T08:55:23.117Z,100567.13
2022-11-21T08:57:51.093Z,100568.06
2022-11-21T09:00:19.211Z,100570.41
2022-11-21T09:02:47.144Z,100575.53
2022-11-21T09:05:15.264Z,100581.72
2022-11-21T09:07:44.649Z,100578.81
2022-11-21T09:10:12.925Z,100571.75
2022-11-21T09:12:40.918Z,100574.19
2022-11-21T09:15:29.351Z,100575.78
2022-11-21T09:18:04.577Z,100570.34
2022-11-21T09:20:34.309Z,100576.53
2022-11-21T09:23:06.891Z,100573.63
2022-11-21T09:25:35.286Z,100556.09
2022-11-21T09:28:04.218Z,100564.50
2022-11-21T09:30:32.135Z,100544.75
2022-11-21T09:33:01.959Z,100565.34
2022-11-21T09:35:29.948Z,100568.53
2022-11-21T09:37:58.735Z,100565.84
2022-11-21T09:40:30.284Z,100563.91
2022-11-21T09:43:11.495Z,100564.66
2022-11-21T09:45:46.282Z,100563.91
2022-11-21T09:48:18.675Z,100561.97
2022-11-21T09:50:53.931Z,100559.31
2022-11-21T09:53:27.373Z,100557.34
2022-11-21T09:56:00.026Z,100548.22
2022-11-21T09:58:33.146Z,100531.03
2022-11-21T10:01:01.342Z,100545.66
2022-11-21T10:03:32.719Z,100532.13
2022-11-21T10:06:04.070Z,100544.56
2022-11-21T10:08:42.823Z,100549.81
2022-11-21T10:11:22.559Z,100546.41
2022-11-21T10:14:10.834Z,100547.00
2022-11-21T10:16:45.645Z,100551.41
2022-11-21T10:19:28.620Z,100533.25
2022-11-21T10:22:09.623Z,100559.19
2022-11-21T10:24:47.528Z,100551.16
2022-11-21T10:27:22.948Z,100540.31
2022-11-21T10:29:55.590Z,100533.50
2022-11-21T10:32:27.078Z,100537.53
2022-11-21T10:35:00.120Z,100535.56
2022-11-21T10:37:36.406Z,100528.41
2022-11-21T10:40:16.186Z,100527.41
2022-11-21T10:42:52.771Z,100530.22
2022-11-21T10:45:20.330Z,100538.25
2022-11-21T10:47:50.273Z,100560.53
2022-11-21T10:50:38.939Z,100532.66
2022-11-21T10:53:33.723Z,100537.16
2022-11-21T10:56:04.369Z,100533.75
2022-11-21T10:58:45.394Z,100526.44
2022-11-21T11:01:25.866Z,100530.81
2022-11-21T11:04:27.793Z,100538.03
2022-11-21T11:07:00.098Z,100530.22
2022-11-21T11:09:31.660Z,100533.50
2022-11-21T11:12:25.473Z,100537.03
2022-11-21T11:14:58.137Z,100520.22
2022-11-21T11:17:31.258Z,100519.13
2022-11-21T11:20:05.566Z,100523.63
2022-11-21T11:22:33.523Z,100522.78
2022-11-21T11:25:04.954Z,100519.00
2022-11-21T11:27:32.962Z,100522.78
2022-11-21T11:30:08.559Z,100518.03
2022-11-21T11:32:41.899Z,100517.19
2022-11-21T11:35:21.727Z,100510.13
2022-11-21T11:38:00.258Z,100510.88
2022-11-21T11:40:34.070Z,100512.69
2022-11-21T11:43:38.303Z,100515.13
2022-11-21T11:46:33.710Z,100510.88
2022-11-21T11:49:20.383Z,100511.81
2022-11-21T11:51:54.541Z,100516.22
2022-11-21T11:54:26.355Z,100510.72
2022-11-21T11:56:55.133Z,100514.25
2022-11-21T11:59:29.751Z,100511.34
2022-11-21T12:02:08.899Z,100510.50
2022-11-21T12:04:48.911Z,100509.63
2022-11-21T12:10:19.177Z,100504.28
2022-11-21T12:12:50.639Z,100511.34
2022-11-21T12:15:41.178Z,100506.00
2022-11-21T12:18:17.593Z,100500.63
2022-11-21T12:20:55.190Z,100506.84
2022-11-21T12:23:26.362Z,100507.72
2022-11-21T12:26:07.541Z,100512.94
2022-11-21T12:28:43.995Z,100495.28
2022-11-21T12:31:22.382Z,100502.34
2022-11-21T12:33:59.847Z,100507.56
2022-11-21T12:36:36.281Z,100497.72
2022-11-21T12:39:43.143Z,100497.72
2022-11-21T12:42:35.582Z,100498.69
2022-11-21T12:45:16.960Z,100487.09
2022-11-21T12:48:22.552Z,100492.34
2022-11-21T12:51:19.676Z,100485.28
2022-11-21T12:54:14.384Z,100488.69
2022-11-21T12:56:50.428Z,100485.19
2022-11-21T12:59:20.928Z,100480.63
2022-11-21T13:01:56.315Z,100497.22
2022-11-21T13:04:29.940Z,100486.41
2022-11-21T13:07:00.504Z,100489.94
2022-11-21T13:09:31.637Z,100477.53
2022-11-21T13:12:05.026Z,100479.09
2022-11-21T13:14:43.795Z,100479.94
2022-11-21T13:17:21.937Z,100466.56
2022-11-21T13:19:55.815Z,100457.56
2022-11-21T13:22:50.729Z,100458.38
2022-11-21T13:25:39.418Z,100456.56
2022-11-21T13:28:38.294Z,100457.56
2022-11-21T13:31:29.088Z,100455.69
2022-11-21T13:33:57.400Z,100454.00
2022-11-21T13:36:44.170Z,100445.84
2022-11-21T13:39:40.155Z,100446.69
2022-11-21T13:42:32.951Z,100448.53
2022-11-21T13:45:40.428Z,100445.59
2022-11-21T13:48:43.774Z,100452.78
2022-11-21T13:51:34.553Z,100451.91
2022-11-21T13:54:23.372Z,100455.22
2022-11-21T13:57:12.215Z,100460.44
2022-11-21T14:00:02.329Z,100450.56
2022-11-21T14:02:59.910Z,100459.47
2022-11-21T14:05:43.960Z,100445.72
2022-11-21T14:08:20.300Z,100453.25
2022-11-21T14:10:49.593Z,100454.25
2022-11-21T14:13:29.168Z,100437.06
2022-11-21T14:16:19.011Z,100451.28
2022-11-21T14:18:48.125Z,100479.47
2022-11-21T14:21:22.432Z,100484.06
2022-11-21T14:23:51.705Z,100474.72
2022-11-21T14:26:22.119Z,100407.00
2022-11-21T14:28:52.213Z,100472.50
2022-11-21T14:31:20.310Z,100482.59
2022-11-21T14:33:49.593Z,100472.13
2022-11-21T14:36:21.207Z,100477.63
2022-11-21T14:39:13.704Z,100483.13
2022-11-21T14:41:40.418Z,100471.41
2022-11-21T14:44:18.814Z,100471.16
2022-11-21T14:46:47.910Z,100472.25
2022-11-21T14:49:29.866Z,100479.56
2022-11-21T14:52:05.355Z,100484.31
2022-11-21T14:54:46.784Z,100478.34
2022-11-21T14:57:31.471Z,100476.88
2022-11-21T15:00:01.712Z,100477.00
2022-11-21T15:02:32.643Z,100477.25
2022-11-21T15:05:03.492Z,100476.53
2022-11-21T15:07:41.246Z,100481.25
2022-11-21T15:10:30.183Z,100471.78
2022-11-21T15:13:03.177Z,100473.81
2022-11-21T15:15:34.654Z,100471.28
2022-11-21T15:18:26.383Z,100459.09
2022-11-21T15:20:55.431Z,100457.38
2022-11-21T15:23:31.145Z,100457.50
2022-11-21T15:26:01.529Z,100430.13
2022-11-21T15:28:30.135Z,100455.19
2022-11-21T15:31:19.135Z,100438.50
2022-11-21T15:34:27.661Z,100441.19
2022-11-21T15:37:03.618Z,100446.78
2022-11-21T15:39:32.308Z,100440.69
2022-11-21T15:42:35.835Z,100453.34
2022-11-21T15:45:20.532Z,100448.09
2022-11-21T15:47:50.080Z,100440.44
2022-11-21T15:50:18.724Z,100431.44
2022-11-21T15:52:48.303Z,100411.88
2022-11-21T15:55:36.133Z,100426.22
2022-11-21T15:58:04.116Z,100430.25
2022-11-21T16:00:32.016Z,100437.06
2022-11-21T16:03:01.335Z,100441.22
2022-11-21T16:05:29.430Z,100436.59
2022-11-21T16:07:57.332Z,100442.56
2022-11-21T16:10:28.029Z,100443.16
2022-11-21T16:12:56.542Z,100438.41
2022-11-21T16:15:24.839Z,100440.84
2022-11-21T16:17:53.691Z,100439.75
2022-11-21T16:20:23.059Z,100436.84
2022-11-21T16:22:51.067Z,100442.94
2022-11-21T16:25:19.009Z,100433.94
2022-11-21T16:27:47.274Z,100419.31
2022-11-21T16:30:15.946Z,100434.50
2022-11-21T16:32:43.815Z,100427.22
2022-11-21T16:35:11.732Z,100436.84
2022-11-21T16:37:41.524Z,100426.84
2022-11-21T16:40:11.099Z,100426.72
2022-11-21T16:42:39.049Z,100430.13
2022-11-21T16:45:07.582Z,100430.03
2022-11-21T16:47:37.196Z,100436.94
2022-11-21T16:50:05.865Z,100425.75
2022-11-21T16:52:35.897Z,100435.97
2022-11-21T16:55:05.907Z,100441.94
2022-11-21T16:57:35.316Z,100430.25
2022-11-21T17:00:03.637Z,100429.41
2022-11-21T17:02:31.784Z,100458.63
2022-11-21T17:04:59.631Z,100460.59
2022-11-21T17:07:27.714Z,100448.63
2022-11-21T17:09:55.681Z,100457.28
2022-11-21T17:12:25.028Z,100459.47
2022-11-21T17:14:52.947Z,100440.22
2022-11-21T17:17:20.803Z,100456.19
2022-11-21T17:19:48.923Z,100450.47
2022-11-21T17:22:21.526Z,100447.19
2022-11-21T17:24:53.162Z,100442.41
2022-11-21T17:27:21.611Z,100416.13
2022-11-21T17:29:51.172Z,100437.66
2022-11-21T17:32:19.094Z,100431.09
2022-11-21T17:34:46.970Z,100431.44
2022-11-21T17:37:14.946Z,100429.97
2022-11-21T17:39:42.808Z,100425.91
2022-11-21T17:42:10.759Z,100420.81
2022-11-21T17:44:38.638Z,100426.41
2022-11-21T17:47:07.921Z,100416.06
2022-11-21T17:49:37.233Z,100419.06
2022-11-21T17:52:06.956Z,100407.28
2022-11-21T17:54:35.033Z,100415.28
2022-11-21T17:57:02.974Z,100426.09
2022-11-21T17:59:31.057Z,100420.47
2022-11-21T18:01:59.281Z,100429.47
2022-11-21T18:04:28.848Z,100424.38
2022-11-21T18:06:57.015Z,100423.00
2022-11-21T18:09:24.888Z,100418.84
2022-11-21T18:11:52.775Z,100424.44
2022-11-21T18:14:20.728Z,100430.75
2022-11-21T18:16:53.082Z,100426.63
2022-11-21T18:19:22.262Z,100427.78
2022-11-21T18:21:51.860Z,100432.41
2022-11-21T18:24:19.746Z,100446.00
2022-11-21T18:26:47.800Z,100441.00
2022-11-21T18:32:04.822Z,100441.66
2022-11-21T18:34:32.727Z,100445.94
2022-11-21T18:37:02.056Z,100435.38
2022-11-21T18:39:30.247Z,100441.66
2022-11-21T18:41:58.375Z,100435.59
2022-11-21T18:44:26.276Z,100440.94
2022-11-21T18:46:54.231Z,100413.59
2022-11-21T18:49:22.160Z,100433.97
2022-11-21T18:51:50.293Z,100430.44
2022-11-21T18:54:19.548Z,100429.56
2022-11-21T18:56:47.657Z,100443.91
2022-11-21T18:59:15.600Z,100434.19
2022-11-21T19:01:43.685Z,100421.72
2022-11-21T19:04:11.811Z,100438.91
2022-11-21T19:06:39.700Z,100437.19
2022-11-21T19:09:08.351Z,100436.34
2022-11-21T19:11:37.635Z,100433.78
2022-11-21T19:14:05.630Z,100427.69
2022-11-21T19:16:34.314Z,100430.47
2022-11-21T19:19:33.069Z,100440.44
2022-11-21T19:21:53.927Z,100427.41
2022-11-21T19:24:21.796Z,100424.56
2022-11-21T19:26:51.221Z,100437.56
2022-11-21T19:29:19.660Z,100440.22
2022-11-21T19:31:47.835Z,100434.16
2022-11-21T19:34:17.214Z,100437.69
2022-11-21T19:36:46.193Z,100437.91
2022-11-21T19:39:14.518Z,100441.78
2022-11-21T19:41:42.486Z,100435.56
2022-11-21T19:44:12.187Z,100440.06
2022-11-21T19:46:40.767Z,100431.19
2022-11-21T19:49:11.380Z,100431.31
2022-11-21T19:51:41.478Z,100426.91
2022-11-21T19:54:12.177Z,100426.19
2022-11-21T19:56:40.412Z,100439.53
2022-11-21T19:59:08.805Z,100435.28
2022-11-21T20:01:39.749Z,100428.84
2022-11-21T20:04:08.097Z,100420.97
2022-11-21T20:06:37.959Z,100417.53
2022-11-21T20:09:09.164Z,100412.19
2022-11-21T20:11:37.951Z,100415.72
2022-11-21T20:14:06.018Z,100417.66
2022-11-21T20:16:36.379Z,100419.38
2022-11-21T20:19:07.696Z,100400.59
2022-11-21T20:21:36.020Z,100422.03
2022-11-21T20:24:04.797Z,100428.22
2022-11-21T20:26:33.471Z,100422.03
2022-11-21T20:29:01.524Z,100429.19
2022-11-21T20:31:31.467Z,100401.75
2022-11-21T20:34:01.231Z,100423.00
2022-11-21T20:36:33.434Z,100428.22
2022-11-21T20:39:03.491Z,100432.72
2022-11-21T20:41:33.028Z,100432.81
2022-11-21T20:44:44.671Z,100434.63
2022-11-21T20:46:51.314Z,100440.22
2022-11-21T20:49:19.278Z,100442.75
2022-11-21T20:54:37.823Z,100450.13
2022-11-21T20:57:09.228Z,100450.97
2022-11-21T20:59:41.149Z,100451.09
2022-11-21T21:02:11.749Z,100455.59
2022-11-21T21:04:39.724Z,100462.00
2022-11-21T21:07:09.060Z,100456.66
2022-11-21T21:09:37.132Z,100420.97
2022-11-21T21:12:05.955Z,100430.34
2022-11-21T21:14:33.927Z,100429.94
2022-11-21T21:17:01.878Z,100429.38
2022-11-21T21:19:29.938Z,100434.16
2022-11-21T21:21:58.072Z,100428.38
2022-11-21T21:24:27.728Z,100433.16
2022-11-21T21:26:55.680Z,100439.00
2022-11-21T21:29:23.558Z,100431.50
2022-11-21T21:31:52.605Z,100437.41
2022-11-21T21:34:22.102Z,100410.47
2022-11-21T21:36:50.727Z,100434.06
2022-11-21T21:39:18.696Z,100440.78
2022-11-21T21:41:48.296Z,100449.31
2022-11-21T21:44:16.904Z,100447.22
2022-11-21T21:46:45.300Z,100449.69
2022-11-21T21:49:13.682Z,100440.47
2022-11-21T21:51:41.857Z,100442.06
2022-11-21T21:54:17.611Z,100440.22
2022-11-21T21:56:47.884Z,100449.75
2022-11-21T21:59:18.003Z,100452.91
2022-11-21T22:01:46.321Z,100447.34
2022-11-21T22:04:14.326Z,100451.69
2022-11-21T22:06:42.191Z,100451.38
2022-11-21T22:09:10.428Z,100451.25
2022-11-21T22:11:39.557Z,100449.56
2022-11-21T22:14:12.563Z,100459.69
2022-11-21T22:16:41.023Z,100444.47
2022-11-21T22:19:09.522Z,100457.59
2022-11-21T22:21:38.785Z,100445.94
2022-11-21T22:24:28.470Z,100440.38
2022-11-21T22:26:56.975Z,100445.72
2022-11-21T22:29:26.361Z,100442.91
2022-11-21T22:31:54.303Z,100449.75
2022-11-21T22:34:22.595Z,100446.94
2022-11-21T22:36:50.687Z,100446.00
2022-11-21T22:39:18.727Z,100448.53
2022-11-21T22:41:46.634Z,100446.47
2022-11-21T22:44:14.656Z,100453.53
2022-11-21T22:46:43.912Z,100453.41
2022-11-21T22:49:11.865Z,100463.13
2022-11-21T22:51:39.731Z,100456.81
2022-11-21T22:54:07.755Z,100453.28
2022-11-21T22:56:36.213Z,100454.91
2022-11-21T22:59:04.143Z,100461.84
2022-11-21T23:01:34.048Z,100465.25
2022-11-21T23:04:03.384Z,100457.97
2022-11-21T23:06:31.364Z,100459.66
2022-11-21T23:08:59.273Z,100463.19
2022-11-21T23:11:29.133Z,100461.25
2022-11-21T23:13:57.689Z,100465.66
2022-11-21T23:16:26.390Z,100467.38
2022-11-21T23:18:55.451Z,100467.22
2022-11-21T23:21:24.810Z,100465.28
2022-11-21T23:23:52.682Z,100471.50
2022-11-21T23:26:21.064Z,100417.50
2022-11-21T23:28:49.068Z,100470.25
2022-11-21T23:31:17.232Z,100469.31
2022-11-21T23:33:45.473Z,100471.84
2022-11-21T23:36:13.331Z,100475.28
2022-11-21T23:38:42.888Z,100481.47
2022-11-21T23:41:10.782Z,100480.50
2022-11-21T23:43:38.741Z,100468.09
2022-11-21T23:46:06.673Z,100475.06
2022-11-21T23:48:34.563Z,100472.38
2022-11-21T23:51:02.466Z,100477.59
2022-11-21T23:53:30.367Z,100474.91
2022-11-21T23:55:59.885Z,100483.69
2022-11-21T23:58:27.876Z,100479.19
